Time;durP1;ratioP1;P1;durP2;ratioP2;P2;SDS_P1;SDS_P2;PMS_P1;PMS_P2;Temp;Humidity;BMP_temperature;BMP_pressure;BME280_temperature;BME280_humidity;BME280_pressure;Samples;Min_cycle;Max_cycle;Signal;HPM_P1;HPM_P2
2021/07/20 00:02:32;;;;;;;18.40;12.80;;;;;;;;;;5095910;28;20054;-58
2021/07/20 00:04:58;;;;;;;14.60;11.13;;;;;;;;;;5094837;28;20029;-57
2021/07/20 00:07:24;;;;;;;18.10;13.90;;;;;;;;;;5095260;28;20520;-58
2021/07/20 00:09:50;;;;;;;14.68;11.23;;;;;;;;;;5093898;28;20031;-58
2021/07/20 00:12:16;;;;;;;15.68;12.23;;;;;;;;;;5095313;28;20052;-58
2021/07/20 00:14:42;;;;;;;18.95;12.48;;;;;;;;;;5095075;28;20023;-58
2021/07/20 00:17:08;;;;;;;17.90;13.13;;;;;;;;;;5095111;28;20362;-57
2021/07/20 00:19:34;;;;;;;17.02;11.77;;;;;;;;;;5095013;28;20024;-58
2021/07/20 00:22:00;;;;;;;17.55;12.50;;;;;;;;;;5095573;28;20039;-58
2021/07/20 00:24:26;;;;;;;16.02;12.60;;;;;;;;;;5094967;28;20073;-58
2021/07/20 00:26:52;;;;;;;19.50;12.85;;;;;;;;;;5094778;28;20381;-58
2021/07/20 00:29:18;;;;;;;16.30;11.48;;;;;;;;;;5094893;28;20028;-58
2021/07/20 00:31:44;;;;;;;13.90;12.02;;;;;;;;;;5095078;28;20043;-58
2021/07/20 00:34:10;;;;;;;14.02;11.82;;;;;;;;;;5094797;28;20024;-58
2021/07/20 00:36:36;;;;;;;15.00;11.15;;;;;;;;;;5094733;28;20028;-58
2021/07/20 00:39:03;;;;;;;13.80;10.88;;;;;;;;;;5094638;28;20062;-58
2021/07/20 00:41:29;;;;;;;17.20;12.00;;;;;;;;;;5093341;28;20028;-58
2021/07/20 00:43:55;;;;;;;16.20;11.77;;;;;;;;;;5093370;28;20028;-57
2021/07/20 00:46:21;;;;;;;16.27;13.45;;;;;;;;;;5094557;28;20032;-58
2021/07/20 00:48:47;;;;;;;17.67;12.82;;;;;;;;;;5094730;28;20024;-58
2021/07/20 00:51:13;;;;;;;18.60;12.27;;;;;;;;;;5094785;28;20024;-58
2021/07/20 00:53:40;;;;;;;17.50;11.55;;;;;;;;;;5094341;28;20085;-57
2021/07/20 00:56:06;;;;;;;14.10;11.48;;;;;;;;;;5094331;28;20115;-58
2021/07/20 00:58:32;;;;;;;14.68;12.07;;;;;;;;;;5094290;28;20039;-58
2021/07/20 01:00:58;;;;;;;14.43;11.30;;;;;;;;;;5094281;28;20400;-58
2021/07/20 01:03:26;;;;;;;16.48;11.30;;;;;;;;;;5094568;28;20024;-58
2021/07/20 01:05:52;;;;;;;16.55;11.63;;;;;;;;;;5094167;28;20442;-58
2021/07/20 01:08:19;;;;;;;13.00;10.88;;;;;;;;;;5094139;28;20073;-58
2021/07/20 01:10:46;;;;;;;18.42;13.23;;;;;;;;;;5093920;28;20509;-58
2021/07/20 01:13:13;;;;;;;15.68;12.48;;;;;;;;;;5093917;28;20042;-57
2021/07/20 01:15:39;;;;;;;18.00;12.50;;;;;;;;;;5094153;28;20094;-57
2021/07/20 01:18:06;;;;;;;14.40;11.52;;;;;;;;;;5094016;28;20067;-58
2021/07/20 01:20:32;;;;;;;16.75;12.27;;;;;;;;;;5093285;28;20238;-58
2021/07/20 01:23:07;;;;;;;16.27;11.50;;;;;;;;;;5094824;28;20021;-58
2021/07/20 01:25:33;;;;;;;15.63;12.15;;;;;;;;;;5094458;28;20043;-58
2021/07/20 01:28:02;;;;;;;13.80;12.38;;;;;;;;;;5094419;28;20043;-58
2021/07/20 01:30:29;;;;;;;17.40;12.50;;;;;;;;;;5093854;28;20012;-58
2021/07/20 01:32:55;;;;;;;14.27;11.07;;;;;;;;;;5094611;28;20067;-58
2021/07/20 01:35:22;;;;;;;14.90;12.32;;;;;;;;;;5093770;28;20024;-57
2021/07/20 01:37:48;;;;;;;17.17;12.52;;;;;;;;;;5093283;28;20031;-58
2021/07/20 01:40:14;;;;;;;16.83;13.93;;;;;;;;;;5092556;28;20028;-58
2021/07/20 01:42:44;;;;;;;14.25;11.68;;;;;;;;;;5094316;28;20339;-58
2021/07/20 01:45:11;;;;;;;15.10;12.82;;;;;;;;;;5094306;28;20339;-58
2021/07/20 01:47:38;;;;;;;16.10;11.15;;;;;;;;;;5094219;28;20031;-58
2021/07/20 01:50:05;;;;;;;14.52;10.50;;;;;;;;;;5093742;28;20354;-58
2021/07/20 01:52:32;;;;;;;17.67;11.95;;;;;;;;;;5094433;28;20388;-58
2021/07/20 01:54:58;;;;;;;15.48;11.60;;;;;;;;;;5093684;28;20018;-57
2021/07/20 01:57:24;;;;;;;19.17;11.70;;;;;;;;;;5094106;28;20396;-58
2021/07/20 01:59:53;;;;;;;15.30;12.00;;;;;;;;;;5093973;28;20020;-57
2021/07/20 02:10:26;;;;;;;13.48;11.55;;;;;;;;;;5093208;28;20063;-57
2021/07/20 02:12:55;;;;;;;16.13;11.30;;;;;;;;;;5093682;28;20075;-58
2021/07/20 02:15:21;;;;;;;16.73;12.10;;;;;;;;;;5093199;28;20517;-58
2021/07/20 02:17:48;;;;;;;12.57;11.23;;;;;;;;;;5093473;28;20032;-58
2021/07/20 02:20:19;;;;;;;15.55;11.35;;;;;;;;;;5093392;28;20074;-58
2021/07/20 02:22:46;;;;;;;12.88;11.57;;;;;;;;;;5093963;28;20032;-57
2021/07/20 02:25:12;;;;;;;14.00;11.27;;;;;;;;;;5093321;28;20077;-58
2021/07/20 02:27:40;;;;;;;13.18;11.65;;;;;;;;;;5093327;28;20030;-58
2021/07/20 02:30:24;;;;;;;14.85;11.38;;;;;;;;;;5092906;28;20029;-58
2021/07/20 02:32:52;;;;;;;14.80;10.70;;;;;;;;;;5094049;28;20070;-58
2021/07/20 02:35:21;;;;;;;13.15;11.73;;;;;;;;;;5093305;28;20020;-58
2021/07/20 02:37:48;;;;;;;14.18;11.65;;;;;;;;;;5093330;28;20025;-58
2021/07/20 02:40:15;;;;;;;15.57;11.90;;;;;;;;;;5093267;28;20024;-58
2021/07/20 02:42:41;;;;;;;13.80;11.43;;;;;;;;;;5093562;28;20032;-58
2021/07/20 02:45:08;;;;;;;15.05;11.52;;;;;;;;;;5093243;28;20032;-58
2021/07/20 02:47:35;;;;;;;13.25;11.82;;;;;;;;;;5093168;28;20028;-58
2021/07/20 02:50:02;;;;;;;13.60;11.82;;;;;;;;;;5093876;28;20027;-58
2021/07/20 02:52:29;;;;;;;15.70;13.20;;;;;;;;;;5097046;28;20058;-58
2021/07/20 02:54:56;;;;;;;15.10;12.07;;;;;;;;;;5095640;28;20040;-58
2021/07/20 02:57:22;;;;;;;14.98;11.93;;;;;;;;;;5096647;28;20448;-58
2021/07/20 02:59:49;;;;;;;15.13;11.85;;;;;;;;;;5096555;28;20060;-57
2021/07/20 03:02:15;;;;;;;16.95;12.30;;;;;;;;;;5097363;28;20028;-58
2021/07/20 03:04:41;;;;;;;12.93;11.50;;;;;;;;;;5096733;28;20081;-58
2021/07/20 03:07:09;;;;;;;14.52;11.48;;;;;;;;;;5096116;28;20115;-58
2021/07/20 03:09:35;;;;;;;14.20;10.93;;;;;;;;;;5096790;28;20024;-58
2021/07/20 03:12:03;;;;;;;15.02;10.93;;;;;;;;;;5096688;28;20048;-58
2021/07/20 03:14:30;;;;;;;15.98;12.45;;;;;;;;;;5096618;28;20024;-58
2021/07/20 03:16:57;;;;;;;16.13;13.88;;;;;;;;;;5096245;28;20070;-58
2021/07/20 03:19:25;;;;;;;17.02;11.27;;;;;;;;;;5095479;28;20031;-58
2021/07/20 03:21:53;;;;;;;21.05;12.40;;;;;;;;;;5097033;28;20028;-58
2021/07/20 03:24:20;;;;;;;14.82;12.38;;;;;;;;;;5096133;28;20343;-58
2021/07/20 03:26:46;;;;;;;16.52;11.77;;;;;;;;;;5096880;28;20353;-58
2021/07/20 03:29:14;;;;;;;14.55;11.38;;;;;;;;;;5096238;28;20032;-58
2021/07/20 03:31:40;;;;;;;15.85;12.00;;;;;;;;;;5095038;28;20462;-58
2021/07/20 03:34:06;;;;;;;13.65;12.07;;;;;;;;;;5096327;28;20032;-57
2021/07/20 03:36:33;;;;;;;14.02;12.52;;;;;;;;;;5096002;28;20078;-58
2021/07/20 03:39:03;;;;;;;14.30;11.43;;;;;;;;;;5094948;28;20024;-58
2021/07/20 03:41:30;;;;;;;15.75;12.38;;;;;;;;;;5095869;28;20401;-58
2021/07/20 03:43:56;;;;;;;14.23;11.10;;;;;;;;;;5094527;28;20088;-58
2021/07/20 03:46:23;;;;;;;15.07;11.80;;;;;;;;;;5095837;28;20042;-58
2021/07/20 03:48:50;;;;;;;15.30;11.75;;;;;;;;;;5095657;28;20035;-58
2021/07/20 03:51:16;;;;;;;12.32;10.73;;;;;;;;;;5077990;28;20066;-58
2021/07/20 03:53:43;;;;;;;16.95;11.77;;;;;;;;;;5095510;28;20118;-58
2021/07/20 03:56:09;;;;;;;17.02;11.82;;;;;;;;;;5095872;28;20362;-57
2021/07/20 03:58:38;;;;;;;13.20;10.82;;;;;;;;;;5096053;28;20024;-58
2021/07/20 04:01:04;;;;;;;14.50;12.07;;;;;;;;;;5095063;28;20028;-57
2021/07/20 04:03:31;;;;;;;12.38;10.80;;;;;;;;;;5095500;28;20050;-58
2021/07/20 04:06:01;;;;;;;14.30;10.90;;;;;;;;;;5094382;28;20441;-58
2021/07/20 04:08:27;;;;;;;14.05;10.40;;;;;;;;;;5095908;28;20081;-58
2021/07/20 04:10:54;;;;;;;16.13;10.57;;;;;;;;;;5095668;28;20418;-58
2021/07/20 04:13:20;;;;;;;15.15;11.63;;;;;;;;;;5095125;28;20047;-57
2021/07/20 04:15:54;;;;;;;16.92;12.35;;;;;;;;;;5095773;28;20036;-58
2021/07/20 04:18:21;;;;;;;12.55;11.10;;;;;;;;;;5094133;28;20036;-58
2021/07/20 04:20:47;;;;;;;13.32;11.60;;;;;;;;;;5094999;28;20025;-58
2021/07/20 04:23:14;;;;;;;11.45;9.73;;;;;;;;;;5095474;28;20032;-58
2021/07/20 04:25:44;;;;;;;14.15;11.25;;;;;;;;;;5094944;28;20060;-58
2021/07/20 04:28:11;;;;;;;13.18;11.25;;;;;;;;;;5093857;28;20484;-58
2021/07/20 04:30:38;;;;;;;13.10;10.18;;;;;;;;;;5095599;28;20113;-57
2021/07/20 04:33:04;;;;;;;11.63;10.13;;;;;;;;;;5095229;28;20050;-58
2021/07/20 04:35:32;;;;;;;15.38;10.68;;;;;;;;;;5094737;28;20082;-57
2021/07/20 04:37:58;;;;;;;13.50;11.02;;;;;;;;;;5094735;28;20480;-57
2021/07/20 04:40:24;;;;;;;13.50;11.48;;;;;;;;;;5094618;28;20085;-58
2021/07/20 04:42:50;;;;;;;21.98;13.50;;;;;;;;;;5093938;28;20023;-58
2021/07/20 04:45:16;;;;;;;16.90;11.07;;;;;;;;;;5094424;28;20024;-59
2021/07/20 04:47:43;;;;;;;15.25;10.70;;;;;;;;;;5093462;28;20031;-59
2021/07/20 04:50:10;;;;;;;14.30;11.00;;;;;;;;;;5095050;28;20085;-59
2021/07/20 04:52:37;;;;;;;12.65;10.75;;;;;;;;;;5093256;28;20028;-56
2021/07/20 04:55:03;;;;;;;14.95;10.10;;;;;;;;;;5094325;28;20095;-55
2021/07/20 04:57:30;;;;;;;13.38;10.80;;;;;;;;;;5094247;28;20028;-56
2021/07/20 04:59:56;;;;;;;12.45;10.98;;;;;;;;;;5094182;28;20024;-56
2021/07/20 05:02:23;;;;;;;15.80;11.55;;;;;;;;;;5093099;28;20032;-56
2021/07/20 05:04:49;;;;;;;13.20;10.90;;;;;;;;;;5094215;28;20096;-56
2021/07/20 05:07:17;;;;;;;13.85;10.63;;;;;;;;;;5093856;28;20052;-56
2021/07/20 05:09:43;;;;;;;15.35;10.93;;;;;;;;;;5092924;28;20096;-56
2021/07/20 05:12:11;;;;;;;16.75;11.10;;;;;;;;;;5093355;28;20052;-56
2021/07/20 05:14:37;;;;;;;12.82;9.82;;;;;;;;;;5091980;28;20020;-55
2021/07/20 05:17:04;;;;;;;12.07;9.52;;;;;;;;;;5092464;28;20020;-57
2021/07/20 05:19:31;;;;;;;12.85;11.27;;;;;;;;;;5094042;28;20026;-56
2021/07/20 05:21:57;;;;;;;11.75;10.52;;;;;;;;;;5094135;28;20032;-56
2021/07/20 05:24:23;;;;;;;14.90;9.30;;;;;;;;;;5093413;28;20066;-56
2021/07/20 05:26:50;;;;;;;13.85;9.90;;;;;;;;;;5092909;28;20032;-56
2021/07/20 05:29:17;;;;;;;14.27;10.57;;;;;;;;;;5092395;28;20470;-56
2021/07/20 05:31:46;;;;;;;13.70;10.60;;;;;;;;;;5094191;28;20035;-56
2021/07/20 05:34:14;;;;;;;11.60;10.38;;;;;;;;;;5093561;28;20034;-57
2021/07/20 05:36:40;;;;;;;13.35;9.40;;;;;;;;;;5093587;28;20400;-56
2021/07/20 05:39:09;;;;;;;13.25;9.43;;;;;;;;;;5094045;28;20023;-56
2021/07/20 05:41:35;;;;;;;15.95;9.75;;;;;;;;;;5093660;28;20031;-57
2021/07/20 05:44:01;;;;;;;14.70;9.55;;;;;;;;;;5094146;28;20032;-56
2021/07/20 05:46:27;;;;;;;11.57;10.15;;;;;;;;;;5093593;28;20024;-56
2021/07/20 05:48:54;;;;;;;13.05;11.10;;;;;;;;;;5093221;28;20051;-56
2021/07/20 05:51:21;;;;;;;10.60;8.60;;;;;;;;;;5093062;28;20381;-56
2021/07/20 05:53:50;;;;;;;12.90;9.40;;;;;;;;;;5093577;28;20028;-57
2021/07/20 05:56:17;;;;;;;14.23;9.88;;;;;;;;;;5093201;28;20055;-57
2021/07/20 05:58:44;;;;;;;13.35;9.48;;;;;;;;;;5093536;28;20377;-57
2021/07/20 06:01:10;;;;;;;11.88;8.57;;;;;;;;;;5093826;28;20051;-56
2021/07/20 06:03:39;;;;;;;13.40;9.63;;;;;;;;;;5092674;28;20434;-56
2021/07/20 06:06:05;;;;;;;11.05;8.77;;;;;;;;;;5092120;28;20020;-56
2021/07/20 06:08:33;;;;;;;11.10;8.95;;;;;;;;;;5091982;28;20032;-56
2021/07/20 06:11:04;;;;;;;9.90;8.90;;;;;;;;;;5093136;28;20052;-57
2021/07/20 06:13:36;;;;;;;13.98;10.05;;;;;;;;;;5093244;28;20408;-57
2021/07/20 06:16:03;;;;;;;15.20;9.20;;;;;;;;;;5092131;28;20126;-56
2021/07/20 06:18:30;;;;;;;12.75;9.90;;;;;;;;;;5093284;28;20428;-57
2021/07/20 06:20:57;;;;;;;14.93;10.00;;;;;;;;;;5093228;28;20055;-57
2021/07/20 06:23:25;;;;;;;11.43;9.00;;;;;;;;;;5093399;28;20462;-57
2021/07/20 06:25:52;;;;;;;14.10;9.15;;;;;;;;;;5096825;28;20119;-59
2021/07/20 06:28:21;;;;;;;11.88;9.73;;;;;;;;;;5097754;28;20027;-57
2021/07/20 06:30:48;;;;;;;11.10;9.90;;;;;;;;;;5096859;28;20028;-57
2021/07/20 06:33:14;;;;;;;12.38;8.65;;;;;;;;;;5096976;28;20427;-57
2021/07/20 06:35:42;;;;;;;16.90;10.05;;;;;;;;;;5096745;28;20024;-57
2021/07/20 06:38:11;;;;;;;15.23;9.77;;;;;;;;;;5096567;28;20024;-57
2021/07/20 06:40:37;;;;;;;10.55;9.52;;;;;;;;;;5096732;28;20024;-57
2021/07/20 06:43:05;;;;;;;11.60;8.57;;;;;;;;;;5097620;28;20119;-57
2021/07/20 06:45:31;;;;;;;15.50;10.20;;;;;;;;;;5097104;28;20028;-57
2021/07/20 06:47:57;;;;;;;10.85;9.20;;;;;;;;;;5096961;28;20107;-57
2021/07/20 06:50:23;;;;;;;11.35;9.02;;;;;;;;;;5096342;28;20058;-57
2021/07/20 06:52:49;;;;;;;12.50;9.75;;;;;;;;;;5096621;28;20039;-58
2021/07/20 06:55:16;;;;;;;13.50;8.80;;;;;;;;;;5096582;28;20024;-58
2021/07/20 06:57:43;;;;;;;16.23;8.98;;;;;;;;;;5096998;28;20028;-57
2021/07/20 07:00:12;;;;;;;12.07;9.38;;;;;;;;;;5096541;28;20028;-58
2021/07/20 07:02:39;;;;;;;16.75;9.98;;;;;;;;;;5096572;28;20039;-58
2021/07/20 07:05:08;;;;;;;10.50;8.85;;;;;;;;;;5096411;28;20465;-58
2021/07/20 07:07:36;;;;;;;11.30;8.70;;;;;;;;;;5096214;28;20028;-58
2021/07/20 07:10:03;;;;;;;10.00;8.30;;;;;;;;;;5096588;28;20027;-58
2021/07/20 07:12:31;;;;;;;12.20;8.82;;;;;;;;;;5095864;28;20045;-58
2021/07/20 07:14:58;;;;;;;15.30;9.93;;;;;;;;;;5096126;28;20024;-57
2021/07/20 07:17:24;;;;;;;13.35;8.52;;;;;;;;;;5095923;28;20028;-58
2021/07/20 07:19:52;;;;;;;11.45;8.40;;;;;;;;;;5096621;28;20031;-58
2021/07/20 07:22:19;;;;;;;14.68;9.45;;;;;;;;;;5096616;28;20056;-58
2021/07/20 07:24:45;;;;;;;12.70;8.38;;;;;;;;;;5095916;28;20028;-58
2021/07/20 07:27:12;;;;;;;15.98;9.35;;;;;;;;;;5095902;28;20405;-58
2021/07/20 07:29:40;;;;;;;14.80;8.82;;;;;;;;;;5094848;28;20020;-58
2021/07/20 07:32:06;;;;;;;11.07;8.95;;;;;;;;;;5094610;28;20035;-58
2021/07/20 07:34:34;;;;;;;11.35;9.35;;;;;;;;;;5095491;28;20373;-58
2021/07/20 07:37:00;;;;;;;11.68;9.57;;;;;;;;;;5093932;28;20054;-58
2021/07/20 07:39:27;;;;;;;14.98;9.30;;;;;;;;;;5095584;28;20016;-58
2021/07/20 07:41:54;;;;;;;10.45;8.57;;;;;;;;;;5096044;28;20028;-58
2021/07/20 07:44:21;;;;;;;12.88;8.25;;;;;;;;;;5095737;28;20021;-58
2021/07/20 07:46:47;;;;;;;12.45;9.43;;;;;;;;;;5095665;28;20024;-58
2021/07/20 07:49:14;;;;;;;10.70;7.85;;;;;;;;;;5095031;28;20024;-58
2021/07/20 07:51:41;;;;;;;14.13;8.80;;;;;;;;;;5095621;28;20346;-58
2021/07/20 07:54:07;;;;;;;12.18;8.10;;;;;;;;;;5095226;28;20519;-58
2021/07/20 07:56:33;;;;;;;10.18;8.13;;;;;;;;;;5094788;28;20035;-58
2021/07/20 07:59:00;;;;;;;11.93;7.43;;;;;;;;;;5095140;28;20022;-58
2021/07/20 08:01:28;;;;;;;9.43;7.43;;;;;;;;;;5095202;28;20365;-58
2021/07/20 08:03:55;;;;;;;10.60;8.20;;;;;;;;;;5093685;28;20036;-58
2021/07/20 08:06:22;;;;;;;13.50;8.27;;;;;;;;;;5095050;28;20462;-58
2021/07/20 08:08:49;;;;;;;12.60;9.45;;;;;;;;;;5095265;28;20066;-58
2021/07/20 08:11:16;;;;;;;12.18;8.10;;;;;;;;;;5095361;28;20365;-59
2021/07/20 08:13:43;;;;;;;10.68;8.65;;;;;;;;;;5094569;28;20512;-59
2021/07/20 08:16:09;;;;;;;9.55;8.15;;;;;;;;;;5093305;28;20024;-58
2021/07/20 08:18:36;;;;;;;8.32;6.88;;;;;;;;;;5095431;28;20031;-58
2021/07/20 08:21:04;;;;;;;10.15;8.07;;;;;;;;;;5093516;28;20073;-58
2021/07/20 08:23:31;;;;;;;9.98;8.25;;;;;;;;;;5095200;28;20480;-58
2021/07/20 08:25:59;;;;;;;15.10;7.75;;;;;;;;;;5094980;28;20054;-58
2021/07/20 08:28:25;;;;;;;11.38;7.97;;;;;;;;;;5094551;28;20016;-58
2021/07/20 08:30:51;;;;;;;10.85;8.07;;;;;;;;;;5094130;28;20026;-58
2021/07/20 08:33:19;;;;;;;11.00;7.95;;;;;;;;;;5094099;28;20425;-58
2021/07/20 08:35:46;;;;;;;10.55;8.07;;;;;;;;;;5093196;28;20017;-59
2021/07/20 08:38:13;;;;;;;9.70;7.95;;;;;;;;;;5093950;28;20400;-58
2021/07/20 08:40:58;;;;;;;10.55;7.30;;;;;;;;;;5094361;28;20028;-58
2021/07/20 08:43:28;;;;;;;8.63;7.03;;;;;;;;;;5094530;28;20107;-59
2021/07/20 08:46:03;;;;;;;8.57;7.38;;;;;;;;;;5094189;28;20028;-58
2021/07/20 08:48:43;;;;;;;10.32;7.22;;;;;;;;;;5093962;28;20069;-58
2021/07/20 08:51:12;;;;;;;9.15;7.00;;;;;;;;;;5094044;28;20462;-58
2021/07/20 08:53:40;;;;;;;10.95;5.97;;;;;;;;;;5094254;28;20057;-58
2021/07/20 08:56:07;;;;;;;15.13;7.07;;;;;;;;;;5092972;28;20052;-59
2021/07/20 08:58:35;;;;;;;12.18;7.80;;;;;;;;;;5094114;28;20111;-58
2021/07/20 09:01:03;;;;;;;8.35;6.82;;;;;;;;;;5092891;28;20024;-58
2021/07/20 09:03:35;;;;;;;10.77;7.60;;;;;;;;;;5094257;28;20020;-59
2021/07/20 09:06:08;;;;;;;10.00;7.70;;;;;;;;;;5094222;28;20096;-58
2021/07/20 09:08:34;;;;;;;9.40;7.70;;;;;;;;;;5094032;28;20028;-59
2021/07/20 09:11:10;;;;;;;11.85;8.93;;;;;;;;;;5093639;28;20178;-59
2021/07/20 09:13:40;;;;;;;9.10;6.90;;;;;;;;;;5091973;28;20093;-58
2021/07/20 09:16:11;;;;;;;11.90;8.02;;;;;;;;;;5094215;28;20051;-58
2021/07/20 09:18:38;;;;;;;;;;;;;;;;;;5093639;28;20032;-59
2021/07/20 09:21:07;;;;;;;12.05;7.55;;;;;;;;;;5092453;28;20341;-58
2021/07/20 09:23:53;;;;;;;11.73;8.40;;;;;;;;;;5093556;28;20032;-58
2021/07/20 09:26:21;;;;;;;11.20;8.27;;;;;;;;;;5092388;28;20028;-59
2021/07/20 09:29:01;;;;;;;10.50;8.45;;;;;;;;;;5093355;28;20023;-59
2021/07/20 09:31:45;;;;;;;15.70;8.90;;;;;;;;;;5094343;28;20024;-59
2021/07/20 09:34:34;;;;;;;10.48;7.28;;;;;;;;;;5093660;28;20036;-59
2021/07/20 09:37:03;;;;;;;10.15;8.15;;;;;;;;;;5092313;28;20036;-58
2021/07/20 09:39:47;;;;;;;14.07;9.82;;;;;;;;;;5093777;28;20122;-59
2021/07/20 09:42:37;;;;;;;12.23;8.00;;;;;;;;;;5094263;28;20043;-59
2021/07/20 09:45:07;;;;;;;9.75;7.70;;;;;;;;;;5094001;28;20066;-58
2021/07/20 09:47:53;;;;;;;10.45;7.88;;;;;;;;;;5093844;28;20025;-59
2021/07/20 09:50:19;;;;;;;11.07;8.07;;;;;;;;;;5093607;28;20035;-59
2021/07/20 09:52:59;;;;;;;9.35;8.27;;;;;;;;;;5093977;28;20476;-59
2021/07/20 09:55:43;;;;;;;11.57;7.65;;;;;;;;;;5093550;28;20058;-59
2021/07/20 09:58:22;;;;;;;10.43;8.10;;;;;;;;;;5093754;28;20068;-59
2021/07/20 10:00:51;;;;;;;12.13;8.38;;;;;;;;;;5097649;28;20024;-59
2021/07/20 10:03:22;;;;;;;12.27;8.68;;;;;;;;;;5097625;28;20406;-59
2021/07/20 10:05:59;;;;;;;11.75;7.35;;;;;;;;;;5098180;28;20024;-59
2021/07/20 10:08:45;;;;;;;10.32;8.02;;;;;;;;;;5098208;28;20024;-59
2021/07/20 10:11:30;;;;;;;12.55;8.20;;;;;;;;;;5097490;28;20134;-59
2021/07/20 10:14:07;;;;;;;11.77;9.40;;;;;;;;;;5097281;28;20032;-59
2021/07/20 10:16:44;;;;;;;10.60;8.50;;;;;;;;;;5097355;28;20020;-59
2021/07/20 10:19:13;;;;;;;10.98;8.02;;;;;;;;;;5097749;28;20474;-59
2021/07/20 10:21:41;;;;;;;11.60;9.38;;;;;;;;;;5097800;28;20032;-59
2021/07/20 10:24:15;;;;;;;11.93;9.43;;;;;;;;;;5097983;28;20028;-59
2021/07/20 10:26:47;;;;;;;13.02;8.70;;;;;;;;;;5097346;28;20028;-59
2021/07/20 10:29:21;;;;;;;10.43;9.30;;;;;;;;;;5097127;28;20461;-59
2021/07/20 10:32:06;;;;;;;11.23;8.05;;;;;;;;;;5097541;28;20028;-59
2021/07/20 10:34:32;;;;;;;13.80;7.90;;;;;;;;;;5097041;28;20066;-59
2021/07/20 10:37:03;;;;;;;10.95;8.48;;;;;;;;;;5096861;28;20111;-58
2021/07/20 10:39:35;;;;;;;11.95;8.50;;;;;;;;;;5097682;28;20394;-59
2021/07/20 10:42:13;;;;;;;9.90;8.82;;;;;;;;;;5097104;28;20529;-59
2021/07/20 10:44:39;;;;;;;10.88;9.52;;;;;;;;;;5095255;28;20020;-59
2021/07/20 10:47:06;;;;;;;10.48;9.40;;;;;;;;;;5096639;28;20025;-59
2021/07/20 10:49:41;;;;;;;11.68;9.80;;;;;;;;;;5096607;28;20492;-59
2021/07/20 10:52:29;;;;;;;12.98;9.48;;;;;;;;;;5096959;28;20032;-59
2021/07/20 10:55:03;;;;;;;12.32;8.80;;;;;;;;;;5095420;28;20020;-58
2021/07/20 10:57:33;;;;;;;10.95;9.20;;;;;;;;;;5096975;28;20024;-59
2021/07/20 11:00:05;;;;;;;10.02;8.35;;;;;;;;;;5097382;28;20027;-59
2021/07/20 11:02:33;;;;;;;11.60;8.82;;;;;;;;;;5097034;28;20488;-59
2021/07/20 11:05:00;;;;;;;12.70;9.27;;;;;;;;;;5096428;28;20051;-59
2021/07/20 11:07:31;;;;;;;13.27;9.70;;;;;;;;;;5096380;28;20078;-59
2021/07/20 11:10:00;;;;;;;12.63;9.40;;;;;;;;;;5095659;28;20031;-59
2021/07/20 11:12:28;;;;;;;12.87;9.73;;;;;;;;;;5093677;28;20135;-59
2021/07/20 11:14:57;;;;;;;10.50;9.25;;;;;;;;;;5095403;28;20020;-59
2021/07/20 11:17:24;;;;;;;13.10;8.77;;;;;;;;;;5096025;28;20103;-59
2021/07/20 11:19:51;;;;;;;10.30;8.73;;;;;;;;;;5096092;28;20060;-59
2021/07/20 11:22:18;;;;;;;12.30;8.75;;;;;;;;;;5096798;28;20412;-59
2021/07/20 11:24:45;;;;;;;10.35;8.70;;;;;;;;;;5096263;28;20054;-59
2021/07/20 11:27:13;;;;;;;11.75;8.75;;;;;;;;;;5096425;28;20032;-59
2021/07/20 11:29:39;;;;;;;9.30;8.38;;;;;;;;;;5095771;28;20103;-59
2021/07/20 11:32:06;;;;;;;9.30;8.05;;;;;;;;;;5095728;28;20024;-59
2021/07/20 11:34:36;;;;;;;12.13;8.88;;;;;;;;;;5096118;28;20020;-59
2021/07/20 11:37:09;;;;;;;10.90;7.60;;;;;;;;;;5095694;28;20055;-59
2021/07/20 11:39:38;;;;;;;8.82;7.63;;;;;;;;;;5095466;28;20024;-59
2021/07/20 11:42:13;;;;;;;12.32;9.85;;;;;;;;;;5095738;28;20042;-59
2021/07/20 11:44:53;;;;;;;9.55;8.55;;;;;;;;;;5095756;28;20027;-59
2021/07/20 11:47:21;;;;;;;10.82;8.05;;;;;;;;;;5095838;28;20335;-59
2021/07/20 11:49:58;;;;;;;11.93;8.63;;;;;;;;;;5095669;28;20031;-59
2021/07/20 11:52:34;;;;;;;10.48;9.38;;;;;;;;;;5095572;28;20025;-58
2021/07/20 11:55:05;;;;;;;11.45;9.23;;;;;;;;;;5095751;28;20454;-59
2021/07/20 11:57:50;;;;;;;9.13;7.90;;;;;;;;;;5095377;28;20129;-59
2021/07/20 12:00:24;;;;;;;9.90;8.88;;;;;;;;;;5095231;28;20454;-59
2021/07/20 12:03:09;;;;;;;10.43;8.45;;;;;;;;;;5095280;28;20043;-59
2021/07/20 12:05:53;;;;;;;13.18;9.32;;;;;;;;;;5095350;28;20024;-59
2021/07/20 12:08:28;;;;;;;9.95;8.40;;;;;;;;;;5095788;28;20358;-59
2021/07/20 12:11:03;;;;;;;11.95;9.25;;;;;;;;;;5095122;28;20051;-59
2021/07/20 12:13:29;;;;;;;10.40;7.65;;;;;;;;;;5095561;28;20079;-59
2021/07/20 12:15:57;;;;;;;11.70;8.93;;;;;;;;;;5095075;28;20458;-59
2021/07/20 12:18:23;;;;;;;11.00;8.70;;;;;;;;;;5095119;28;20107;-59
2021/07/20 12:20:51;;;;;;;14.15;9.77;;;;;;;;;;5094270;28;20066;-59
2021/07/20 12:23:17;;;;;;;19.45;9.60;;;;;;;;;;5094660;28;20450;-59
2021/07/20 12:25:43;;;;;;;18.38;9.38;;;;;;;;;;5094851;28;20067;-59
2021/07/20 12:28:10;;;;;;;12.40;7.70;;;;;;;;;;5094850;28;20024;-59
2021/07/20 12:30:36;;;;;;;12.40;8.80;;;;;;;;;;5095182;28;20054;-59
2021/07/20 12:33:04;;;;;;;14.32;8.30;;;;;;;;;;5095138;28;20020;-59
2021/07/20 12:35:30;;;;;;;13.85;8.75;;;;;;;;;;5095335;28;20020;-59
2021/07/20 12:38:06;;;;;;;11.95;8.75;;;;;;;;;;5094659;28;20020;-59
2021/07/20 12:40:33;;;;;;;10.60;8.45;;;;;;;;;;5094442;28;20020;-59
2021/07/20 12:43:16;;;;;;;12.63;8.55;;;;;;;;;;5094726;28;20073;-59
2021/07/20 12:45:43;;;;;;;10.70;8.60;;;;;;;;;;5095242;28;20073;-59
2021/07/20 12:48:26;;;;;;;11.95;9.43;;;;;;;;;;5094941;28;20518;-59
2021/07/20 12:50:53;;;;;;;11.45;8.90;;;;;;;;;;5094419;28;20024;-59
2021/07/20 12:53:20;;;;;;;12.05;8.75;;;;;;;;;;5094371;28;20052;-59
2021/07/20 12:55:46;;;;;;;10.02;8.05;;;;;;;;;;5094680;28;20016;-59
2021/07/20 12:58:13;;;;;;;9.20;7.55;;;;;;;;;;5094223;28;20103;-59
2021/07/20 13:00:40;;;;;;;10.43;8.75;;;;;;;;;;5094178;28;20028;-59
2021/07/20 13:03:10;;;;;;;11.65;8.05;;;;;;;;;;5094677;28;20092;-59
2021/07/20 13:05:40;;;;;;;10.60;8.73;;;;;;;;;;5094010;28;20023;-59
2021/07/20 13:08:06;;;;;;;12.30;8.90;;;;;;;;;;5094640;28;20034;-59
2021/07/20 13:10:33;;;;;;;11.18;8.63;;;;;;;;;;5093667;28;20465;-59
2021/07/20 13:13:00;;;;;;;12.07;8.10;;;;;;;;;;5094317;28;20024;-58
2021/07/20 13:15:26;;;;;;;11.15;8.07;;;;;;;;;;5093503;28;20466;-59
2021/07/20 13:17:56;;;;;;;8.77;7.38;;;;;;;;;;5093860;28;20028;-59
2021/07/20 13:20:23;;;;;;;10.00;7.43;;;;;;;;;;5093864;28;20024;-59
2021/07/20 13:22:51;;;;;;;10.23;7.47;;;;;;;;;;5093939;28;20040;-59
2021/07/20 13:25:17;;;;;;;9.88;8.15;;;;;;;;;;5093506;28;20024;-59
2021/07/20 13:27:45;;;;;;;12.55;8.98;;;;;;;;;;5093637;28;20043;-59
2021/07/20 13:30:13;;;;;;;9.20;8.00;;;;;;;;;;5092463;28;20035;-59
2021/07/20 13:32:39;;;;;;;15.90;8.23;;;;;;;;;;5093823;28;20118;-59
2021/07/20 13:35:06;;;;;;;9.63;8.10;;;;;;;;;;5092910;28;20020;-59
2021/07/20 13:37:34;;;;;;;11.25;7.70;;;;;;;;;;5093608;28;20054;-59
2021/07/20 13:40:01;;;;;;;10.40;8.23;;;;;;;;;;5093825;28;20052;-59
2021/07/20 13:42:28;;;;;;;9.63;7.35;;;;;;;;;;5094044;28;20027;-59
2021/07/20 13:44:55;;;;;;;8.40;7.43;;;;;;;;;;5093777;28;20148;-58
2021/07/20 13:47:22;;;;;;;8.85;7.75;;;;;;;;;;5094141;28;20037;-59
2021/07/20 13:49:50;;;;;;;8.45;6.63;;;;;;;;;;5093779;28;20072;-59
2021/07/20 13:52:16;;;;;;;13.77;7.70;;;;;;;;;;5094021;28;20107;-59
2021/07/20 13:54:44;;;;;;;10.15;8.02;;;;;;;;;;5093433;28;20457;-59
2021/07/20 13:57:10;;;;;;;12.15;8.20;;;;;;;;;;5093398;28;20082;-59
2021/07/20 13:59:39;;;;;;;8.80;7.60;;;;;;;;;;5093705;28;20020;-59
2021/07/20 14:02:05;;;;;;;9.05;7.47;;;;;;;;;;5093910;28;20020;-59
2021/07/20 14:04:31;;;;;;;14.93;7.43;;;;;;;;;;5093631;28;20105;-59
2021/07/20 14:06:58;;;;;;;11.50;7.28;;;;;;;;;;5093294;28;20016;-59
2021/07/20 14:09:24;;;;;;;12.18;8.25;;;;;;;;;;5093266;28;20028;-59
2021/07/20 14:11:50;;;;;;;10.88;7.75;;;;;;;;;;5093814;28;20051;-59
2021/07/20 14:14:18;;;;;;;10.38;7.22;;;;;;;;;;5093790;28;20373;-59
2021/07/20 14:16:45;;;;;;;10.73;8.38;;;;;;;;;;5093415;28;20040;-59
2021/07/20 14:19:11;;;;;;;11.85;8.23;;;;;;;;;;5093659;28;20422;-59
2021/07/20 14:21:39;;;;;;;10.75;7.60;;;;;;;;;;5093540;28;20567;-59
2021/07/20 14:24:09;;;;;;;9.15;7.43;;;;;;;;;;5093132;28;20114;-59
2021/07/20 14:26:40;;;;;;;10.77;7.43;;;;;;;;;;5093066;28;20028;-59
2021/07/20 14:29:26;;;;;;;9.35;7.25;;;;;;;;;;5093622;28;20432;-59
2021/07/20 14:31:56;;;;;;;8.57;6.00;;;;;;;;;;5093733;28;20070;-59
2021/07/20 14:34:22;;;;;;;7.25;6.18;;;;;;;;;;5093364;28;20028;-58
2021/07/20 14:36:52;;;;;;;10.75;7.25;;;;;;;;;;5093579;28;20020;-59
2021/07/20 14:39:27;;;;;;;14.20;7.28;;;;;;;;;;5093044;28;20096;-59
2021/07/20 14:42:08;;;;;;;9.43;7.07;;;;;;;;;;5093373;28;20032;-58
2021/07/20 14:44:40;;;;;;;10.15;7.45;;;;;;;;;;5093351;28;20067;-59